sensor_id;sensor_type;location;lat;lon;timestamp;P1;durP1;ratioP1;P2;durP2;ratioP2
43807;SDS011;29438;50.664;10.098;2023-03-26T00:01:11;8.88;;;2.63;;
43807;SDS011;29438;50.664;10.098;2023-03-26T00:03:39;9.23;;;2.53;;
43807;SDS011;29438;50.664;10.098;2023-03-26T00:06:07;6.82;;;2.13;;
43807;SDS011;29438;50.664;10.098;2023-03-26T00:08:35;10.50;;;2.25;;
43807;SDS011;29438;50.664;10.098;2023-03-26T00:11:02;6.70;;;2.10;;
43807;SDS011;29438;50.664;10.098;2023-03-26T00:13:29;7.53;;;1.95;;
43807;SDS011;29438;50.664;10.098;2023-03-26T00:15:56;12.48;;;2.30;;
43807;SDS011;29438;50.664;10.098;2023-03-26T00:18:21;7.75;;;2.08;;
43807;SDS011;29438;50.664;10.098;2023-03-26T00:20:49;6.50;;;1.70;;
43807;SDS011;29438;50.664;10.098;2023-03-26T00:23:15;8.45;;;2.10;;
43807;SDS011;29438;50.664;10.098;2023-03-26T00:25:41;7.32;;;2.17;;
43807;SDS011;29438;50.664;10.098;2023-03-26T00:28:07;6.45;;;1.80;;
43807;SDS011;29438;50.664;10.098;2023-03-26T00:30:33;7.22;;;2.13;;
43807;SDS011;29438;50.664;10.098;2023-03-26T00:32:59;7.50;;;2.42;;
43807;SDS011;29438;50.664;10.098;2023-03-26T00:35:25;6.47;;;2.10;;
43807;SDS011;29438;50.664;10.098;2023-03-26T00:37:53;6.00;;;1.88;;
43807;SDS011;29438;50.664;10.098;2023-03-26T00:40:18;6.03;;;1.50;;
43807;SDS011;29438;50.664;10.098;2023-03-26T00:42:44;9.35;;;2.30;;
43807;SDS011;29438;50.664;10.098;2023-03-26T00:45:09;6.40;;;1.98;;
43807;SDS011;29438;50.664;10.098;2023-03-26T00:47:35;9.63;;;1.92;;
43807;SDS011;29438;50.664;10.098;2023-03-26T00:50:01;6.53;;;1.58;;
43807;SDS011;29438;50.664;10.098;2023-03-26T00:52:28;6.43;;;1.73;;
43807;SDS011;29438;50.664;10.098;2023-03-26T00:54:54;4.22;;;1.83;;
43807;SDS011;29438;50.664;10.098;2023-03-26T00:57:20;6.88;;;1.45;;
43807;SDS011;29438;50.664;10.098;2023-03-26T00:59:46;5.18;;;1.73;;
43807;SDS011;29438;50.664;10.098;2023-03-26T01:02:13;4.85;;;1.42;;
43807;SDS011;29438;50.664;10.098;2023-03-26T01:04:42;5.75;;;1.33;;
43807;SDS011;29438;50.664;10.098;2023-03-26T01:07:10;6.90;;;1.40;;
43807;SDS011;29438;50.664;10.098;2023-03-26T01:09:39;4.18;;;1.08;;
43807;SDS011;29438;50.664;10.098;2023-03-26T01:12:09;3.17;;;0.68;;
43807;SDS011;29438;50.664;10.098;2023-03-26T01:14:39;4.15;;;0.80;;
43807;SDS011;29438;50.664;10.098;2023-03-26T01:17:06;3.97;;;0.80;;
43807;SDS011;29438;50.664;10.098;2023-03-26T01:19:42;5.82;;;0.70;;
43807;SDS011;29438;50.664;10.098;2023-03-26T01:22:10;2.40;;;0.60;;
43807;SDS011;29438;50.664;10.098;2023-03-26T01:24:42;4.97;;;0.57;;
43807;SDS011;29438;50.664;10.098;2023-03-26T01:27:11;6.40;;;0.90;;
43807;SDS011;29438;50.664;10.098;2023-03-26T01:32:48;5.60;;;0.60;;
43807;SDS011;29438;50.664;10.098;2023-03-26T01:48:43;4.75;;;0.73;;
43807;SDS011;29438;50.664;10.098;2023-03-26T01:51:10;5.40;;;0.70;;
43807;SDS011;29438;50.664;10.098;2023-03-26T01:53:41;4.72;;;1.00;;
43807;SDS011;29438;50.664;10.098;2023-03-26T01:56:17;6.25;;;0.90;;
43807;SDS011;29438;50.664;10.098;2023-03-26T02:01:52;5.28;;;0.93;;
43807;SDS011;29438;50.664;10.098;2023-03-26T02:09:48;3.67;;;0.65;;
43807;SDS011;29438;50.664;10.098;2023-03-26T02:12:19;6.07;;;1.13;;
43807;SDS011;29438;50.664;10.098;2023-03-26T02:14:46;4.85;;;0.80;;
43807;SDS011;29438;50.664;10.098;2023-03-26T02:17:12;5.07;;;0.85;;
43807;SDS011;29438;50.664;10.098;2023-03-26T02:19:38;6.55;;;1.10;;
43807;SDS011;29438;50.664;10.098;2023-03-26T02:22:06;5.35;;;0.82;;
43807;SDS011;29438;50.664;10.098;2023-03-26T02:24:35;5.60;;;0.82;;
43807;SDS011;29438;50.664;10.098;2023-03-26T02:27:02;3.85;;;0.73;;
43807;SDS011;29438;50.664;10.098;2023-03-26T02:29:31;5.55;;;1.05;;
43807;SDS011;29438;50.664;10.098;2023-03-26T02:32:01;4.13;;;0.80;;
43807;SDS011;29438;50.664;10.098;2023-03-26T02:34:28;6.15;;;0.90;;
43807;SDS011;29438;50.664;10.098;2023-03-26T02:36:54;5.70;;;0.90;;
43807;SDS011;29438;50.664;10.098;2023-03-26T02:39:21;4.47;;;0.90;;
43807;SDS011;29438;50.664;10.098;2023-03-26T02:41:47;5.05;;;0.82;;
43807;SDS011;29438;50.664;10.098;2023-03-26T02:44:12;3.85;;;0.80;;
43807;SDS011;29438;50.664;10.098;2023-03-26T02:46:38;5.70;;;0.90;;
43807;SDS011;29438;50.664;10.098;2023-03-26T02:49:03;5.57;;;0.80;;
43807;SDS011;29438;50.664;10.098;2023-03-26T02:51:29;7.50;;;1.00;;
43807;SDS011;29438;50.664;10.098;2023-03-26T02:53:59;7.53;;;0.85;;
43807;SDS011;29438;50.664;10.098;2023-03-26T02:56:25;5.95;;;0.60;;
43807;SDS011;29438;50.664;10.098;2023-03-26T02:58:51;5.95;;;0.80;;
43807;SDS011;29438;50.664;10.098;2023-03-26T03:01:16;2.63;;;0.63;;
43807;SDS011;29438;50.664;10.098;2023-03-26T03:03:42;6.15;;;1.33;;
43807;SDS011;29438;50.664;10.098;2023-03-26T03:06:08;5.50;;;0.60;;
43807;SDS011;29438;50.664;10.098;2023-03-26T03:08:34;5.28;;;0.90;;
43807;SDS011;29438;50.664;10.098;2023-03-26T03:11:00;4.55;;;0.70;;
43807;SDS011;29438;50.664;10.098;2023-03-26T03:13:28;5.65;;;1.00;;
43807;SDS011;29438;50.664;10.098;2023-03-26T03:15:53;4.75;;;0.68;;
43807;SDS011;29438;50.664;10.098;2023-03-26T03:18:19;5.43;;;0.75;;
43807;SDS011;29438;50.664;10.098;2023-03-26T03:20:45;4.55;;;0.85;;
43807;SDS011;29438;50.664;10.098;2023-03-26T03:23:11;5.55;;;0.93;;
43807;SDS011;29438;50.664;10.098;2023-03-26T03:25:38;5.03;;;1.60;;
43807;SDS011;29438;50.664;10.098;2023-03-26T03:28:05;3.33;;;0.80;;
43807;SDS011;29438;50.664;10.098;2023-03-26T03:30:31;6.30;;;1.00;;
43807;SDS011;29438;50.664;10.098;2023-03-26T03:32:56;5.22;;;1.10;;
43807;SDS011;29438;50.664;10.098;2023-03-26T03:35:22;13.00;;;1.73;;
43807;SDS011;29438;50.664;10.098;2023-03-26T03:37:49;4.47;;;1.00;;
43807;SDS011;29438;50.664;10.098;2023-03-26T03:40:14;5.07;;;1.23;;
43807;SDS011;29438;50.664;10.098;2023-03-26T03:42:41;6.30;;;1.20;;
43807;SDS011;29438;50.664;10.098;2023-03-26T03:45:06;4.00;;;1.40;;
43807;SDS011;29438;50.664;10.098;2023-03-26T03:47:32;11.60;;;1.55;;
43807;SDS011;29438;50.664;10.098;2023-03-26T03:49:57;12.32;;;1.90;;
43807;SDS011;29438;50.664;10.098;2023-03-26T03:52:24;7.45;;;1.50;;
43807;SDS011;29438;50.664;10.098;2023-03-26T03:54:51;4.97;;;1.65;;
43807;SDS011;29438;50.664;10.098;2023-03-26T03:57:16;6.75;;;1.63;;
43807;SDS011;29438;50.664;10.098;2023-03-26T03:59:42;7.47;;;1.40;;
43807;SDS011;29438;50.664;10.098;2023-03-26T04:02:08;7.15;;;1.50;;
43807;SDS011;29438;50.664;10.098;2023-03-26T04:04:34;7.60;;;1.73;;
43807;SDS011;29438;50.664;10.098;2023-03-26T04:07:01;5.50;;;1.50;;
43807;SDS011;29438;50.664;10.098;2023-03-26T04:09:27;9.55;;;1.60;;
43807;SDS011;29438;50.664;10.098;2023-03-26T04:11:53;9.70;;;1.90;;
43807;SDS011;29438;50.664;10.098;2023-03-26T04:14:18;6.07;;;1.58;;
43807;SDS011;29438;50.664;10.098;2023-03-26T04:16:44;6.55;;;1.90;;
43807;SDS011;29438;50.664;10.098;2023-03-26T04:19:09;10.10;;;2.20;;
43807;SDS011;29438;50.664;10.098;2023-03-26T04:21:35;9.90;;;1.77;;
43807;SDS011;29438;50.664;10.098;2023-03-26T04:24:02;7.05;;;1.90;;
43807;SDS011;29438;50.664;10.098;2023-03-26T04:26:29;10.18;;;1.98;;
43807;SDS011;29438;50.664;10.098;2023-03-26T04:28:56;4.57;;;1.63;;
43807;SDS011;29438;50.664;10.098;2023-03-26T04:31:25;6.45;;;1.67;;
43807;SDS011;29438;50.664;10.098;2023-03-26T04:33:54;6.22;;;1.67;;
43807;SDS011;29438;50.664;10.098;2023-03-26T04:36:30;8.45;;;1.60;;
43807;SDS011;29438;50.664;10.098;2023-03-26T04:38:58;7.63;;;1.80;;
43807;SDS011;29438;50.664;10.098;2023-03-26T04:41:28;8.93;;;1.70;;
43807;SDS011;29438;50.664;10.098;2023-03-26T04:43:56;9.55;;;1.60;;
43807;SDS011;29438;50.664;10.098;2023-03-26T04:46:21;9.68;;;1.73;;
43807;SDS011;29438;50.664;10.098;2023-03-26T04:48:51;5.20;;;1.20;;
43807;SDS011;29438;50.664;10.098;2023-03-26T04:51:18;10.50;;;1.80;;
43807;SDS011;29438;50.664;10.098;2023-03-26T04:53:50;6.10;;;1.65;;
43807;SDS011;29438;50.664;10.098;2023-03-26T05:01:27;11.88;;;1.73;;
43807;SDS011;29438;50.664;10.098;2023-03-26T05:03:54;10.02;;;2.17;;
43807;SDS011;29438;50.664;10.098;2023-03-26T05:06:21;8.18;;;1.73;;
43807;SDS011;29438;50.664;10.098;2023-03-26T05:08:46;6.90;;;1.83;;
43807;SDS011;29438;50.664;10.098;2023-03-26T05:11:12;7.53;;;2.03;;
43807;SDS011;29438;50.664;10.098;2023-03-26T05:13:38;8.85;;;2.20;;
43807;SDS011;29438;50.664;10.098;2023-03-26T05:16:07;10.10;;;2.03;;
43807;SDS011;29438;50.664;10.098;2023-03-26T05:18:33;8.35;;;2.10;;
43807;SDS011;29438;50.664;10.098;2023-03-26T05:20:58;5.38;;;1.80;;
43807;SDS011;29438;50.664;10.098;2023-03-26T05:23:24;5.97;;;1.88;;
43807;SDS011;29438;50.664;10.098;2023-03-26T05:25:50;8.52;;;1.90;;
43807;SDS011;29438;50.664;10.098;2023-03-26T05:28:15;7.80;;;1.70;;
43807;SDS011;29438;50.664;10.098;2023-03-26T05:30:43;7.28;;;1.60;;
43807;SDS011;29438;50.664;10.098;2023-03-26T05:33:08;7.80;;;1.58;;
43807;SDS011;29438;50.664;10.098;2023-03-26T05:35:34;9.85;;;1.70;;
43807;SDS011;29438;50.664;10.098;2023-03-26T05:38:00;10.63;;;2.17;;
43807;SDS011;29438;50.664;10.098;2023-03-26T05:40:26;6.63;;;1.42;;
43807;SDS011;29438;50.664;10.098;2023-03-26T05:42:51;10.75;;;1.60;;
43807;SDS011;29438;50.664;10.098;2023-03-26T05:45:17;8.48;;;1.58;;
43807;SDS011;29438;50.664;10.098;2023-03-26T05:47:42;8.00;;;1.25;;
43807;SDS011;29438;50.664;10.098;2023-03-26T05:50:08;7.40;;;1.58;;
43807;SDS011;29438;50.664;10.098;2023-03-26T05:52:35;6.82;;;1.40;;
43807;SDS011;29438;50.664;10.098;2023-03-26T05:55:01;9.32;;;1.33;;
43807;SDS011;29438;50.664;10.098;2023-03-26T05:57:28;4.57;;;0.88;;
43807;SDS011;29438;50.664;10.098;2023-03-26T05:59:54;5.25;;;1.20;;
43807;SDS011;29438;50.664;10.098;2023-03-26T06:02:20;8.75;;;1.00;;
43807;SDS011;29438;50.664;10.098;2023-03-26T06:04:46;7.53;;;1.73;;
43807;SDS011;29438;50.664;10.098;2023-03-26T06:07:11;10.43;;;1.20;;
43807;SDS011;29438;50.664;10.098;2023-03-26T06:09:37;7.13;;;1.20;;
43807;SDS011;29438;50.664;10.098;2023-03-26T06:12:04;6.35;;;1.33;;
43807;SDS011;29438;50.664;10.098;2023-03-26T06:14:31;5.30;;;0.82;;
43807;SDS011;29438;50.664;10.098;2023-03-26T06:16:57;7.35;;;1.38;;
43807;SDS011;29438;50.664;10.098;2023-03-26T06:19:22;5.85;;;1.20;;
43807;SDS011;29438;50.664;10.098;2023-03-26T06:21:48;8.77;;;1.33;;
43807;SDS011;29438;50.664;10.098;2023-03-26T06:24:14;8.18;;;1.08;;
43807;SDS011;29438;50.664;10.098;2023-03-26T06:26:40;6.43;;;1.10;;
43807;SDS011;29438;50.664;10.098;2023-03-26T06:29:06;6.65;;;1.10;;
43807;SDS011;29438;50.664;10.098;2023-03-26T06:31:32;10.82;;;1.25;;
43807;SDS011;29438;50.664;10.098;2023-03-26T06:33:58;5.10;;;1.00;;
43807;SDS011;29438;50.664;10.098;2023-03-26T06:36:23;7.38;;;1.75;;
43807;SDS011;29438;50.664;10.098;2023-03-26T06:38:49;6.18;;;1.20;;
43807;SDS011;29438;50.664;10.098;2023-03-26T06:41:14;5.43;;;1.00;;
43807;SDS011;29438;50.664;10.098;2023-03-26T06:43:40;6.80;;;1.40;;
43807;SDS011;29438;50.664;10.098;2023-03-26T06:46:05;5.43;;;0.95;;
43807;SDS011;29438;50.664;10.098;2023-03-26T06:48:31;7.22;;;0.93;;
43807;SDS011;29438;50.664;10.098;2023-03-26T06:50:56;8.40;;;1.30;;
43807;SDS011;29438;50.664;10.098;2023-03-26T06:53:22;8.55;;;1.60;;
43807;SDS011;29438;50.664;10.098;2023-03-26T06:55:48;7.82;;;1.63;;
43807;SDS011;29438;50.664;10.098;2023-03-26T06:58:13;5.80;;;1.38;;
43807;SDS011;29438;50.664;10.098;2023-03-26T07:00:39;10.32;;;1.50;;
43807;SDS011;29438;50.664;10.098;2023-03-26T07:03:06;6.82;;;1.15;;
43807;SDS011;29438;50.664;10.098;2023-03-26T07:05:32;9.30;;;1.60;;
43807;SDS011;29438;50.664;10.098;2023-03-26T07:07:58;6.90;;;1.40;;
43807;SDS011;29438;50.664;10.098;2023-03-26T07:10:23;6.70;;;1.27;;
43807;SDS011;29438;50.664;10.098;2023-03-26T07:12:49;6.25;;;1.30;;
43807;SDS011;29438;50.664;10.098;2023-03-26T07:15:14;5.15;;;1.65;;
43807;SDS011;29438;50.664;10.098;2023-03-26T07:17:40;8.05;;;1.30;;
43807;SDS011;29438;50.664;10.098;2023-03-26T07:20:06;6.25;;;1.48;;
43807;SDS011;29438;50.664;10.098;2023-03-26T07:22:32;6.43;;;1.58;;
43807;SDS011;29438;50.664;10.098;2023-03-26T07:24:59;6.43;;;1.08;;
43807;SDS011;29438;50.664;10.098;2023-03-26T07:35:49;5.68;;;0.90;;
43807;SDS011;29438;50.664;10.098;2023-03-26T07:41:15;8.73;;;0.82;;
43807;SDS011;29438;50.664;10.098;2023-03-26T07:47:09;7.57;;;0.90;;
43807;SDS011;29438;50.664;10.098;2023-03-26T07:49:50;3.17;;;0.77;;
43807;SDS011;29438;50.664;10.098;2023-03-26T07:52:17;6.93;;;2.00;;
43807;SDS011;29438;50.664;10.098;2023-03-26T07:54:43;6.82;;;1.00;;
43807;SDS011;29438;50.664;10.098;2023-03-26T07:57:12;6.40;;;0.98;;
43807;SDS011;29438;50.664;10.098;2023-03-26T08:00:06;5.57;;;1.10;;
43807;SDS011;29438;50.664;10.098;2023-03-26T08:05:49;4.10;;;1.10;;
43807;SDS011;29438;50.664;10.098;2023-03-26T08:08:24;5.73;;;1.30;;
43807;SDS011;29438;50.664;10.098;2023-03-26T08:13:53;5.20;;;0.73;;
43807;SDS011;29438;50.664;10.098;2023-03-26T08:19:45;5.95;;;0.60;;
43807;SDS011;29438;50.664;10.098;2023-03-26T08:25:00;7.53;;;1.00;;
43807;SDS011;29438;50.664;10.098;2023-03-26T08:27:42;6.53;;;1.35;;
43807;SDS011;29438;50.664;10.098;2023-03-26T08:30:25;7.75;;;1.13;;
43807;SDS011;29438;50.664;10.098;2023-03-26T08:32:53;5.05;;;0.75;;
43807;SDS011;29438;50.664;10.098;2023-03-26T08:35:21;6.47;;;0.90;;
43807;SDS011;29438;50.664;10.098;2023-03-26T08:37:48;4.03;;;0.68;;
43807;SDS011;29438;50.664;10.098;2023-03-26T08:40:16;4.75;;;0.75;;
43807;SDS011;29438;50.664;10.098;2023-03-26T08:48:52;5.03;;;0.68;;
43807;SDS011;29438;50.664;10.098;2023-03-26T08:51:25;3.90;;;0.73;;
43807;SDS011;29438;50.664;10.098;2023-03-26T09:00:00;10.23;;;2.25;;
43807;SDS011;29438;50.664;10.098;2023-03-26T09:16:50;7.47;;;1.20;;
43807;SDS011;29438;50.664;10.098;2023-03-26T09:33:50;5.88;;;1.58;;
43807;SDS011;29438;50.664;10.098;2023-03-26T09:41:31;4.97;;;1.67;;
43807;SDS011;29438;50.664;10.098;2023-03-26T09:47:31;6.53;;;1.50;;
43807;SDS011;29438;50.664;10.098;2023-03-26T09:50:20;7.78;;;1.25;;
43807;SDS011;29438;50.664;10.098;2023-03-26T10:00:58;4.57;;;1.83;;
43807;SDS011;29438;50.664;10.098;2023-03-26T10:06:25;6.53;;;1.73;;
43807;SDS011;29438;50.664;10.098;2023-03-26T10:09:16;4.93;;;1.83;;
43807;SDS011;29438;50.664;10.098;2023-03-26T10:17:35;6.38;;;1.33;;
43807;SDS011;29438;50.664;10.098;2023-03-26T10:25:57;5.22;;;2.00;;
43807;SDS011;29438;50.664;10.098;2023-03-26T10:31:23;7.88;;;2.70;;
43807;SDS011;29438;50.664;10.098;2023-03-26T10:34:02;8.95;;;2.40;;
43807;SDS011;29438;50.664;10.098;2023-03-26T10:37:23;5.05;;;2.33;;
43807;SDS011;29438;50.664;10.098;2023-03-26T10:39:42;5.38;;;1.90;;
43807;SDS011;29438;50.664;10.098;2023-03-26T10:53:53;6.18;;;1.83;;
43807;SDS011;29438;50.664;10.098;2023-03-26T10:56:39;6.40;;;1.50;;
43807;SDS011;29438;50.664;10.098;2023-03-26T10:59:11;3.97;;;1.30;;
43807;SDS011;29438;50.664;10.098;2023-03-26T11:04:33;3.85;;;1.50;;
43807;SDS011;29438;50.664;10.098;2023-03-26T11:07:16;4.00;;;1.70;;
43807;SDS011;29438;50.664;10.098;2023-03-26T11:09:56;2.67;;;1.00;;
43807;SDS011;29438;50.664;10.098;2023-03-26T11:13:11;4.00;;;0.93;;
43807;SDS011;29438;50.664;10.098;2023-03-26T11:15:52;2.38;;;0.50;;
43807;SDS011;29438;50.664;10.098;2023-03-26T11:21:45;2.22;;;0.50;;
43807;SDS011;29438;50.664;10.098;2023-03-26T11:24:01;2.05;;;0.52;;
43807;SDS011;29438;50.664;10.098;2023-03-26T11:26:55;0.70;;;0.10;;
43807;SDS011;29438;50.664;10.098;2023-03-26T11:32:19;1.25;;;0.30;;
43807;SDS011;29438;50.664;10.098;2023-03-26T11:37:34;4.10;;;1.75;;
43807;SDS011;29438;50.664;10.098;2023-03-26T11:40:10;1.15;;;0.40;;
43807;SDS011;29438;50.664;10.098;2023-03-26T11:42:41;0.80;;;0.20;;
43807;SDS011;29438;50.664;10.098;2023-03-26T11:45:13;3.33;;;0.60;;
43807;SDS011;29438;50.664;10.098;2023-03-26T11:48:03;3.10;;;0.52;;
43807;SDS011;29438;50.664;10.098;2023-03-26T11:50:33;3.13;;;0.57;;
43807;SDS011;29438;50.664;10.098;2023-03-26T11:53:09;3.90;;;0.55;;
43807;SDS011;29438;50.664;10.098;2023-03-26T11:55:41;2.13;;;0.35;;
43807;SDS011;29438;50.664;10.098;2023-03-26T11:58:18;1.00;;;0.10;;
43807;SDS011;29438;50.664;10.098;2023-03-26T12:00:53;0.52;;;0.00;;
43807;SDS011;29438;50.664;10.098;2023-03-26T12:03:19;1.27;;;0.25;;
43807;SDS011;29438;50.664;10.098;2023-03-26T12:05:46;0.55;;;0.10;;
43807;SDS011;29438;50.664;10.098;2023-03-26T12:08:26;1.25;;;0.30;;
43807;SDS011;29438;50.664;10.098;2023-03-26T12:11:02;2.50;;;0.30;;
43807;SDS011;29438;50.664;10.098;2023-03-26T12:16:04;1.30;;;0.20;;
43807;SDS011;29438;50.664;10.098;2023-03-26T12:18:38;2.75;;;0.20;;
43807;SDS011;29438;50.664;10.098;2023-03-26T12:26:37;1.45;;;0.20;;
43807;SDS011;29438;50.664;10.098;2023-03-26T12:29:07;1.40;;;0.20;;
43807;SDS011;29438;50.664;10.098;2023-03-26T12:31:44;1.20;;;0.25;;
43807;SDS011;29438;50.664;10.098;2023-03-26T12:34:16;0.68;;;0.20;;
43807;SDS011;29438;50.664;10.098;2023-03-26T12:36:50;1.45;;;0.20;;
43807;SDS011;29438;50.664;10.098;2023-03-26T12:41:55;3.33;;;0.30;;
43807;SDS011;29438;50.664;10.098;2023-03-26T12:44:27;1.75;;;0.40;;
43807;SDS011;29438;50.664;10.098;2023-03-26T12:47:36;2.50;;;0.40;;
43807;SDS011;29438;50.664;10.098;2023-03-26T12:49:44;1.55;;;0.28;;
43807;SDS011;29438;50.664;10.098;2023-03-26T13:03:28;1.55;;;0.20;;
43807;SDS011;29438;50.664;10.098;2023-03-26T13:17:06;1.30;;;0.10;;
43807;SDS011;29438;50.664;10.098;2023-03-26T13:22:41;1.25;;;0.20;;
43807;SDS011;29438;50.664;10.098;2023-03-26T13:27:58;2.08;;;0.43;;
43807;SDS011;29438;50.664;10.098;2023-03-26T13:38:32;1.20;;;0.20;;
43807;SDS011;29438;50.664;10.098;2023-03-26T13:47:12;0.95;;;0.10;;
43807;SDS011;29438;50.664;10.098;2023-03-26T13:49:49;1.80;;;0.20;;
43807;SDS011;29438;50.664;10.098;2023-03-26T13:52:24;1.98;;;0.40;;
43807;SDS011;29438;50.664;10.098;2023-03-26T13:58:21;1.77;;;0.30;;
43807;SDS011;29438;50.664;10.098;2023-03-26T14:00:57;1.40;;;0.30;;
43807;SDS011;29438;50.664;10.098;2023-03-26T14:03:46;1.80;;;0.30;;
43807;SDS011;29438;50.664;10.098;2023-03-26T14:06:38;1.55;;;0.35;;
43807;SDS011;29438;50.664;10.098;2023-03-26T14:09:17;1.02;;;0.30;;
43807;SDS011;29438;50.664;10.098;2023-03-26T14:12:14;2.10;;;0.30;;
43807;SDS011;29438;50.664;10.098;2023-03-26T14:15:10;1.80;;;0.38;;
43807;SDS011;29438;50.664;10.098;2023-03-26T14:18:04;0.93;;;0.30;;
43807;SDS011;29438;50.664;10.098;2023-03-26T14:35:32;1.55;;;0.40;;
43807;SDS011;29438;50.664;10.098;2023-03-26T14:40:57;1.00;;;0.20;;
43807;SDS011;29438;50.664;10.098;2023-03-26T14:43:47;2.35;;;0.22;;
43807;SDS011;29438;50.664;10.098;2023-03-26T14:46:49;1.88;;;0.40;;
43807;SDS011;29438;50.664;10.098;2023-03-26T14:52:34;2.30;;;0.50;;
43807;SDS011;29438;50.664;10.098;2023-03-26T14:55:12;2.92;;;0.20;;
43807;SDS011;29438;50.664;10.098;2023-03-26T14:57:57;1.00;;;0.30;;
43807;SDS011;29438;50.664;10.098;2023-03-26T15:03:49;2.40;;;0.28;;
43807;SDS011;29438;50.664;10.098;2023-03-26T15:06:49;2.25;;;0.40;;
43807;SDS011;29438;50.664;10.098;2023-03-26T15:12:39;1.33;;;0.30;;
43807;SDS011;29438;50.664;10.098;2023-03-26T15:33:09;1.67;;;0.20;;
43807;SDS011;29438;50.664;10.098;2023-03-26T15:39:12;1.52;;;0.40;;
43807;SDS011;29438;50.664;10.098;2023-03-26T15:46:50;4.07;;;1.60;;
43807;SDS011;29438;50.664;10.098;2023-03-26T15:52:29;2.97;;;0.80;;
43807;SDS011;29438;50.664;10.098;2023-03-26T15:55:16;1.35;;;0.30;;
43807;SDS011;29438;50.664;10.098;2023-03-26T16:01:04;2.85;;;1.10;;
43807;SDS011;29438;50.664;10.098;2023-03-26T16:03:48;1.95;;;0.80;;
43807;SDS011;29438;50.664;10.098;2023-03-26T16:07:28;0.70;;;0.20;;
43807;SDS011;29438;50.664;10.098;2023-03-26T16:12:29;1.58;;;0.45;;
43807;SDS011;29438;50.664;10.098;2023-03-26T16:18:02;2.97;;;0.68;;
43807;SDS011;29438;50.664;10.098;2023-03-26T16:20:52;2.63;;;1.30;;
43807;SDS011;29438;50.664;10.098;2023-03-26T16:23:54;1.95;;;0.65;;
43807;SDS011;29438;50.664;10.098;2023-03-26T16:29:25;1.38;;;0.10;;
43807;SDS011;29438;50.664;10.098;2023-03-26T16:40:40;1.05;;;0.20;;
43807;SDS011;29438;50.664;10.098;2023-03-26T16:45:50;0.50;;;0.00;;
43807;SDS011;29438;50.664;10.098;2023-03-26T16:58:59;1.92;;;0.70;;
43807;SDS011;29438;50.664;10.098;2023-03-26T17:01:39;2.63;;;0.85;;
43807;SDS011;29438;50.664;10.098;2023-03-26T17:04:14;2.53;;;0.70;;
43807;SDS011;29438;50.664;10.098;2023-03-26T17:06:51;1.88;;;0.30;;
43807;SDS011;29438;50.664;10.098;2023-03-26T17:12:35;2.00;;;0.50;;
43807;SDS011;29438;50.664;10.098;2023-03-26T17:15:22;1.95;;;1.13;;
43807;SDS011;29438;50.664;10.098;2023-03-26T17:17:53;0.90;;;0.40;;
43807;SDS011;29438;50.664;10.098;2023-03-26T17:26:30;1.20;;;0.40;;
43807;SDS011;29438;50.664;10.098;2023-03-26T17:32:15;1.38;;;0.43;;
43807;SDS011;29438;50.664;10.098;2023-03-26T17:35:02;2.00;;;0.52;;
43807;SDS011;29438;50.664;10.098;2023-03-26T17:37:34;1.95;;;0.20;;
43807;SDS011;29438;50.664;10.098;2023-03-26T17:43:07;2.60;;;1.00;;
43807;SDS011;29438;50.664;10.098;2023-03-26T17:45:36;1.48;;;0.22;;
43807;SDS011;29438;50.664;10.098;2023-03-26T17:48:09;0.60;;;0.10;;
43807;SDS011;29438;50.664;10.098;2023-03-26T17:50:49;0.80;;;0.30;;
43807;SDS011;29438;50.664;10.098;2023-03-26T17:53:22;0.38;;;0.10;;
43807;SDS011;29438;50.664;10.098;2023-03-26T17:55:52;0.83;;;0.20;;
43807;SDS011;29438;50.664;10.098;2023-03-26T17:58:25;0.68;;;0.13;;
43807;SDS011;29438;50.664;10.098;2023-03-26T18:00:56;1.60;;;0.30;;
43807;SDS011;29438;50.664;10.098;2023-03-26T18:03:30;1.45;;;0.28;;
43807;SDS011;29438;50.664;10.098;2023-03-26T18:06:05;3.13;;;0.52;;
43807;SDS011;29438;50.664;10.098;2023-03-26T18:08:48;2.60;;;0.63;;
43807;SDS011;29438;50.664;10.098;2023-03-26T18:14:36;1.30;;;0.17;;
43807;SDS011;29438;50.664;10.098;2023-03-26T18:17:24;2.20;;;0.82;;
43807;SDS011;29438;50.664;10.098;2023-03-26T18:19:51;4.20;;;1.30;;
43807;SDS011;29438;50.664;10.098;2023-03-26T18:22:20;5.38;;;1.60;;
43807;SDS011;29438;50.664;10.098;2023-03-26T18:24:49;6.60;;;2.13;;
43807;SDS011;29438;50.664;10.098;2023-03-26T18:27:16;6.35;;;2.00;;
43807;SDS011;29438;50.664;10.098;2023-03-26T18:30:30;4.43;;;1.20;;
43807;SDS011;29438;50.664;10.098;2023-03-26T18:32:58;3.45;;;1.15;;
43807;SDS011;29438;50.664;10.098;2023-03-26T18:35:26;1.40;;;0.30;;
43807;SDS011;29438;50.664;10.098;2023-03-26T18:38:01;3.83;;;1.20;;
43807;SDS011;29438;50.664;10.098;2023-03-26T18:40:38;2.05;;;0.50;;
43807;SDS011;29438;50.664;10.098;2023-03-26T18:43:10;3.17;;;0.90;;
43807;SDS011;29438;50.664;10.098;2023-03-26T18:45:39;3.75;;;1.00;;
43807;SDS011;29438;50.664;10.098;2023-03-26T18:48:16;1.02;;;0.25;;
43807;SDS011;29438;50.664;10.098;2023-03-26T18:50:45;0.60;;;0.13;;
43807;SDS011;29438;50.664;10.098;2023-03-26T18:55:47;1.67;;;0.52;;
43807;SDS011;29438;50.664;10.098;2023-03-26T18:58:23;2.10;;;0.50;;
43807;SDS011;29438;50.664;10.098;2023-03-26T19:01:00;3.83;;;1.48;;
43807;SDS011;29438;50.664;10.098;2023-03-26T19:03:29;1.55;;;0.40;;
43807;SDS011;29438;50.664;10.098;2023-03-26T19:05:59;1.00;;;0.30;;
43807;SDS011;29438;50.664;10.098;2023-03-26T19:08:26;0.40;;;0.10;;
43807;SDS011;29438;50.664;10.098;2023-03-26T19:10:52;0.80;;;0.20;;
43807;SDS011;29438;50.664;10.098;2023-03-26T19:13:19;2.88;;;0.52;;
43807;SDS011;29438;50.664;10.098;2023-03-26T19:15:45;1.40;;;0.50;;
43807;SDS011;29438;50.664;10.098;2023-03-26T19:18:15;1.08;;;0.40;;
43807;SDS011;29438;50.664;10.098;2023-03-26T19:20:44;1.15;;;0.22;;
43807;SDS011;29438;50.664;10.098;2023-03-26T19:23:18;1.10;;;0.20;;
43807;SDS011;29438;50.664;10.098;2023-03-26T19:25:51;1.80;;;0.70;;
43807;SDS011;29438;50.664;10.098;2023-03-26T19:28:20;1.45;;;0.20;;
43807;SDS011;29438;50.664;10.098;2023-03-26T19:30:55;2.30;;;0.60;;
43807;SDS011;29438;50.664;10.098;2023-03-26T19:36:31;2.15;;;0.43;;
43807;SDS011;29438;50.664;10.098;2023-03-26T19:38:40;1.63;;;0.43;;
43807;SDS011;29438;50.664;10.098;2023-03-26T19:41:18;1.98;;;0.55;;
43807;SDS011;29438;50.664;10.098;2023-03-26T19:43:51;0.95;;;0.20;;
43807;SDS011;29438;50.664;10.098;2023-03-26T19:46:20;1.70;;;0.40;;
43807;SDS011;29438;50.664;10.098;2023-03-26T19:48:46;0.90;;;0.20;;
43807;SDS011;29438;50.664;10.098;2023-03-26T19:51:23;1.65;;;0.28;;
43807;SDS011;29438;50.664;10.098;2023-03-26T19:53:57;2.97;;;1.05;;
43807;SDS011;29438;50.664;10.098;2023-03-26T19:56:24;0.73;;;0.30;;
43807;SDS011;29438;50.664;10.098;2023-03-26T19:58:51;1.35;;;0.40;;
43807;SDS011;29438;50.664;10.098;2023-03-26T20:01:22;0.93;;;0.20;;
43807;SDS011;29438;50.664;10.098;2023-03-26T20:03:59;1.23;;;0.22;;
43807;SDS011;29438;50.664;10.098;2023-03-26T20:06:28;0.90;;;0.20;;
43807;SDS011;29438;50.664;10.098;2023-03-26T20:08:54;0.77;;;0.13;;
43807;SDS011;29438;50.664;10.098;2023-03-26T20:13:46;1.77;;;0.20;;
43807;SDS011;29438;50.664;10.098;2023-03-26T20:18:49;0.25;;;0.00;;
43807;SDS011;29438;50.664;10.098;2023-03-26T20:21:15;0.38;;;0.10;;
43807;SDS011;29438;50.664;10.098;2023-03-26T20:23:41;0.40;;;0.05;;
43807;SDS011;29438;50.664;10.098;2023-03-26T20:26:11;1.10;;;0.10;;
43807;SDS011;29438;50.664;10.098;2023-03-26T20:28:39;0.60;;;0.00;;